Time;durP1;ratioP1;P1;durP2;ratioP2;P2;SDS_P1;SDS_P2;PMS_P1;PMS_P2;Temp;Humidity;BMP_temperature;BMP_pressure;BME280_temperature;BME280_humidity;BME280_pressure;Samples;Min_cycle;Max_cycle;Signal;HPM_P1;HPM_P2
2023/09/28 00:02:15;;;;;;;31.23;15.10;;;;;11.80;96499.00;;;;8240763;28;20237;-63
2023/09/28 00:06:20;;;;;;;54.83;15.70;;;;;11.80;96499.00;;;;8253269;28;20213;-63
2023/09/28 00:10:24;;;;;;;44.33;14.68;;;;;11.80;96506.00;;;;8255718;28;20208;-63
2023/09/28 00:14:28;;;;;;;40.53;17.52;;;;;11.80;96509.00;;;;8246482;28;20316;-63
2023/09/28 00:18:34;;;;;;;33.50;15.93;;;;;11.80;96510.00;;;;8255900;28;20568;-63
2023/09/28 00:22:39;;;;;;;50.78;14.90;;;;;11.80;96509.00;;;;8266895;28;20555;-63
2023/09/28 00:26:42;;;;;;;36.90;14.93;;;;;11.70;96511.00;;;;8254179;28;20203;-63
2023/09/28 00:30:46;;;;;;;39.38;16.10;;;;;11.60;96510.00;;;;8251955;28;20205;-63
2023/09/28 00:34:55;;;;;;;35.17;16.75;;;;;11.60;96519.00;;;;8251215;28;20198;-62
2023/09/28 00:39:00;;;;;;;32.22;15.55;;;;;11.60;96521.00;;;;8246367;28;20203;-62
2023/09/28 00:43:04;;;;;;;33.67;15.25;;;;;11.50;96522.00;;;;8246817;28;20279;-63
2023/09/28 00:47:10;;;;;;;33.45;15.60;;;;;11.50;96519.00;;;;8254694;28;20286;-63
2023/09/28 00:51:13;;;;;;;33.22;15.50;;;;;11.50;96526.00;;;;8257485;28;20285;-63
2023/09/28 00:55:21;;;;;;;39.47;16.70;;;;;11.50;96524.00;;;;8251015;28;20542;-63
2023/09/28 00:59:25;;;;;;;31.48;15.65;;;;;11.50;96528.00;;;;8252999;28;20210;-63
2023/09/28 01:03:31;;;;;;;32.40;15.52;;;;;11.50;96530.00;;;;8237857;28;20240;-63
2023/09/28 01:07:41;;;;;;;35.03;15.93;;;;;11.50;96529.00;;;;8245939;28;20573;-63
2023/09/28 01:11:49;;;;;;;45.63;14.38;;;;;11.50;96524.00;;;;8249298;28;20800;-63
2023/09/28 01:15:53;;;;;;;184.73;19.52;;;;;11.50;96516.00;;;;8243391;28;20214;-63
2023/09/28 01:19:56;;;;;;;43.65;16.52;;;;;11.50;96517.00;;;;8251133;28;20216;-63
2023/09/28 01:24:05;;;;;;;34.17;14.98;;;;;11.40;96529.00;;;;8252677;28;20252;-63
2023/09/28 01:28:10;;;;;;;39.63;17.08;;;;;11.30;96523.00;;;;8248894;28;20741;-63
2023/09/28 01:32:13;;;;;;;32.85;14.20;;;;;11.40;96529.00;;;;8228121;28;20214;-63
2023/09/28 01:36:16;;;;;;;37.28;16.00;;;;;11.30;96529.00;;;;8238461;28;20204;-63
2023/09/28 01:40:21;;;;;;;53.40;17.33;;;;;11.40;96523.00;;;;8252888;28;20289;-62
2023/09/28 01:44:24;;;;;;;37.03;16.33;;;;;11.30;96524.00;;;;8246805;28;20262;-63
2023/09/28 01:48:30;;;;;;;37.08;16.20;;;;;11.40;96525.00;;;;8246761;28;20201;-63
2023/09/28 01:52:35;;;;;;;28.63;15.30;;;;;11.50;96519.00;;;;8250324;28;20690;-63
2023/09/28 01:56:42;;;;;;;48.08;16.50;;;;;11.50;96524.00;;;;8247416;28;20865;-63
2023/09/28 02:00:46;;;;;;;33.40;14.70;;;;;11.40;96527.00;;;;8251397;28;20211;-63
2023/09/28 02:04:49;;;;;;;44.92;15.57;;;;;11.40;96520.00;;;;8248267;28;20745;-63
2023/09/28 02:08:52;;;;;;;32.60;15.15;;;;;11.20;96517.00;;;;8252013;28;20264;-63
2023/09/28 02:12:57;;;;;;;257.90;22.98;;;;;11.20;96511.00;;;;8258606;28;20296;-63
2023/09/28 02:17:00;;;;;;;34.67;14.93;;;;;11.20;96512.00;;;;8253763;28;20210;-63
2023/09/28 02:21:04;;;;;;;44.15;16.20;;;;;11.10;96518.00;;;;8261514;28;20236;-63
2023/09/28 02:25:08;;;;;;;35.78;15.70;;;;;11.10;96519.00;;;;8257928;28;20229;-63
2023/09/28 02:29:16;;;;;;;42.65;16.48;;;;;11.10;96522.00;;;;8248653;28;20197;-63
2023/09/28 02:33:21;;;;;;;39.88;15.82;;;;;11.10;96520.00;;;;8252950;28;20203;-63
2023/09/28 02:37:27;;;;;;;36.45;15.75;;;;;11.10;96519.00;;;;8256064;28;20207;-63
2023/09/28 02:41:32;;;;;;;40.58;17.25;;;;;11.10;96520.00;;;;8249909;28;20208;-63
2023/09/28 02:45:36;;;;;;;109.00;19.63;;;;;11.10;96520.00;;;;8261149;28;20233;-63
2023/09/28 02:49:39;;;;;;;373.85;27.02;;;;;11.20;96524.00;;;;8253455;28;20934;-63
2023/09/28 02:53:43;;;;;;;109.43;18.55;;;;;11.20;96533.00;;;;8238150;28;20314;-63
2023/09/28 02:57:48;;;;;;;42.05;15.15;;;;;11.10;96526.00;;;;8250645;28;20663;-63
2023/09/28 03:01:52;;;;;;;897.03;53.75;;;;;11.00;96540.00;;;;8281544;22;20347;-64
2023/09/28 03:05:56;;;;;;;42.38;17.08;;;;;11.00;96536.00;;;;8265645;28;20797;-63
2023/09/28 03:10:05;;;;;;;41.55;16.30;;;;;11.00;96540.00;;;;8275486;28;20237;-64
2023/09/28 03:14:13;;;;;;;141.85;21.35;;;;;11.00;96540.00;;;;8287776;28;20336;-64
2023/09/28 03:18:25;;;;;;;227.13;20.92;;;;;11.00;96542.00;;;;8281681;28;20300;-64
2023/09/28 03:22:31;;;;;;;107.22;20.02;;;;;10.90;96530.00;;;;8281029;28;20289;-64
2023/09/28 03:26:35;;;;;;;40.55;16.42;;;;;10.90;96537.00;;;;8282246;28;20229;-64
2023/09/28 03:30:43;;;;;;;40.55;16.08;;;;;10.80;96534.00;;;;8290709;28;20206;-64
2023/09/28 03:34:48;;;;;;;41.92;16.52;;;;;10.80;96534.00;;;;8299262;28;20205;-64
2023/09/28 03:38:53;;;;;;;57.13;17.90;;;;;10.70;96550.00;;;;8294462;28;20221;-64
2023/09/28 03:43:02;;;;;;;36.03;15.88;;;;;10.70;96550.00;;;;8283703;28;20216;-64
2023/09/28 03:47:05;;;;;;;35.60;15.10;;;;;10.60;96554.00;;;;8283829;28;20223;-64
2023/09/28 03:51:15;;;;;;;190.68;24.60;;;;;10.60;96551.00;;;;8281708;28;20202;-64
2023/09/28 03:55:23;;;;;;;45.63;16.73;;;;;10.60;96553.00;;;;8286127;28;20235;-63
2023/09/28 03:59:33;;;;;;;141.07;21.65;;;;;10.60;96560.00;;;;8281807;28;20206;-64
2023/09/28 04:03:36;;;;;;;44.65;16.63;;;;;10.60;96543.00;;;;8251847;28;20228;-64
2023/09/28 04:07:43;;;;;;;64.53;22.00;;;;;10.60;96550.00;;;;8260775;28;20233;-64
2023/09/28 04:11:47;;;;;;;42.47;17.20;;;;;10.60;96560.00;;;;8239580;28;20206;-64
2023/09/28 04:15:51;;;;;;;44.85;19.00;;;;;10.70;96559.00;;;;8240135;28;20198;-64
2023/09/28 04:19:55;;;;;;;39.42;17.23;;;;;10.70;96554.00;;;;8249381;28;20298;-64
2023/09/28 04:24:03;;;;;;;43.20;17.02;;;;;10.70;96551.00;;;;8244399;28;20204;-64
2023/09/28 04:28:09;;;;;;;43.22;18.58;;;;;10.60;96555.00;;;;8241706;28;20719;-64
2023/09/28 04:32:15;;;;;;;43.55;18.13;;;;;10.70;96562.00;;;;8239537;28;20723;-64
2023/09/28 04:36:18;;;;;;;43.67;16.67;;;;;10.60;96558.00;;;;8245018;28;20638;-64
2023/09/28 04:40:28;;;;;;;35.70;16.02;;;;;10.70;96561.00;;;;8243230;28;20299;-64
2023/09/28 04:44:32;;;;;;;36.83;15.98;;;;;10.60;96560.00;;;;8252435;28;20627;-65
2023/09/28 04:48:36;;;;;;;35.45;15.98;;;;;10.50;96572.00;;;;8247781;28;20896;-66
2023/09/28 04:52:42;;;;;;;34.65;15.10;;;;;10.50;96568.00;;;;8241451;28;20243;-66
2023/09/28 04:56:47;;;;;;;47.25;17.15;;;;;10.40;96577.00;;;;8227731;28;20220;-66
2023/09/28 05:00:51;;;;;;;78.60;19.52;;;;;10.40;96585.00;;;;8231285;28;20219;-66
2023/09/28 05:04:57;;;;;;;36.53;16.52;;;;;10.40;96583.00;;;;8231375;28;20648;-65
2023/09/28 05:09:04;;;;;;;247.95;25.90;;;;;10.50;96589.00;;;;8228827;28;20196;-65
2023/09/28 05:13:09;;;;;;;121.40;20.85;;;;;10.70;96583.00;;;;8242247;28;20310;-66
2023/09/28 05:17:14;;;;;;;51.17;16.92;;;;;10.70;96583.00;;;;8238916;28;20200;-66
2023/09/28 05:21:21;;;;;;;44.58;17.42;;;;;10.70;96590.00;;;;8251326;28;20195;-66
2023/09/28 05:25:26;;;;;;;42.55;16.92;;;;;10.80;96589.00;;;;8247790;28;20226;-65
2023/09/28 05:29:30;;;;;;;37.58;16.40;;;;;11.00;96595.00;;;;8246550;28;20291;-66
2023/09/28 05:33:34;;;;;;;118.18;23.00;;;;;11.20;96596.00;;;;8231418;28;20207;-65
2023/09/28 05:37:42;;;;;;;126.78;25.05;;;;;11.40;96608.00;;;;8251726;28;20584;-65
2023/09/28 05:41:50;;;;;;;478.15;38.90;;;;;11.60;96600.00;;;;8240995;28;20203;-66
2023/09/28 05:45:56;;;;;;;102.32;23.95;;;;;11.90;96616.00;;;;8240071;28;20241;-66
2023/09/28 05:50:00;;;;;;;82.80;21.40;;;;;12.10;96622.00;;;;8246606;28;20211;-66
2023/09/28 05:54:04;;;;;;;140.15;24.70;;;;;12.20;96615.00;;;;8243747;28;20865;-66
2023/09/28 05:58:11;;;;;;;222.57;28.55;;;;;12.60;96622.00;;;;8252284;28;20713;-66
2023/09/28 06:02:17;;;;;;;139.15;26.08;;;;;12.90;96629.00;;;;8252696;28;20343;-66
2023/09/28 06:06:23;;;;;;;517.42;42.08;;;;;13.20;96627.00;;;;8253918;28;20237;-66
2023/09/28 06:10:30;;;;;;;253.38;30.48;;;;;13.40;96631.00;;;;8239776;28;20240;-65
2023/09/28 06:14:38;;;;;;;401.80;32.42;;;;;13.70;96633.00;;;;8242225;28;20216;-66
2023/09/28 06:18:44;;;;;;;172.10;24.20;;;;;14.00;96629.00;;;;8246169;28;20242;-66
2023/09/28 06:22:47;;;;;;;301.40;30.17;;;;;14.30;96632.00;;;;8233463;28;20202;-66
2023/09/28 06:26:50;;;;;;;244.40;25.02;;;;;14.50;96635.00;;;;8231144;28;20231;-63
2023/09/28 06:30:56;;;;;;;147.60;21.95;;;;;14.80;96635.00;;;;8258600;28;20206;-64
2023/09/28 06:35:04;;;;;;;143.85;21.17;;;;;15.00;96633.00;;;;8253565;28;20203;-64
2023/09/28 06:39:12;;;;;;;125.00;21.90;;;;;15.20;96633.00;;;;8254444;28;20596;-63
2023/09/28 06:43:16;;;;;;;123.00;20.48;;;;;15.50;96635.00;;;;8257707;28;20209;-64
2023/09/28 06:47:19;;;;;;;438.05;38.03;;;;;15.80;96639.00;;;;8253347;28;20236;-63
2023/09/28 06:51:25;;;;;;;150.00;21.70;;;;;16.00;96642.00;;;;8257040;28;20623;-63
2023/09/28 06:55:29;;;;;;;614.72;41.30;;;;;16.30;96649.00;;;;8254519;28;20286;-64
2023/09/28 06:59:34;;;;;;;224.60;24.77;;;;;16.40;96651.00;;;;8254577;28;20218;-63
2023/09/28 07:03:40;;;;;;;233.02;24.02;;;;;16.40;96653.00;;;;8246643;28;20234;-63
2023/09/28 07:07:46;;;;;;;299.92;28.42;;;;;16.40;96655.00;;;;8242061;28;20249;-63
2023/09/28 07:11:49;;;;;;;87.07;20.38;;;;;16.40;96664.00;;;;8235517;28;20213;-64
2023/09/28 07:15:53;;;;;;;68.03;21.13;;;;;16.30;96670.00;;;;8244946;28;20222;-63
2023/09/28 07:19:57;;;;;;;74.63;21.40;;;;;16.30;96681.00;;;;8263120;28;20230;-63
2023/09/28 07:24:03;;;;;;;67.75;21.77;;;;;16.40;96678.00;;;;8249196;28;20710;-63
2023/09/28 07:28:21;;;;;;;63.83;21.73;;;;;16.50;96690.00;;;;8255127;28;20234;-63
2023/09/28 07:32:25;;;;;;;65.60;22.02;;;;;16.50;96690.00;;;;8261515;28;20323;-62
2023/09/28 07:36:32;;;;;;;38.42;17.55;;;;;16.60;96695.00;;;;8248628;28;20202;-63
2023/09/28 07:40:37;;;;;;;36.35;17.27;;;;;16.70;96703.00;;;;8260768;28;20282;-63
2023/09/28 07:44:52;;;;;;;40.88;17.92;;;;;16.50;96698.00;;;;8258009;28;20206;-63
2023/09/28 07:48:56;;;;;;;50.88;21.05;;;;;16.40;96698.00;;;;8253476;28;20231;-63
2023/09/28 07:53:02;;;;;;;52.80;21.17;;;;;16.50;96698.00;;;;8256746;28;20199;-63
2023/09/28 07:57:09;;;;;;;46.70;20.85;;;;;16.60;96707.00;;;;8256332;28;20217;-63
2023/09/28 08:01:15;;;;;;;44.92;21.73;;;;;16.80;96709.00;;;;8261642;28;20229;-63
2023/09/28 08:05:22;;;;;;;44.40;20.77;;;;;17.00;96722.00;;;;8254893;28;20253;-63
2023/09/28 08:09:27;;;;;;;51.70;22.13;;;;;17.10;96722.00;;;;8256910;28;20203;-63
2023/09/28 08:13:31;;;;;;;47.08;22.08;;;;;17.30;96711.00;;;;8266785;28;20307;-63
2023/09/28 08:17:36;;;;;;;44.13;22.35;;;;;17.60;96725.00;;;;8255851;28;20203;-63
2023/09/28 08:21:40;;;;;;;40.42;22.05;;;;;17.70;96735.00;;;;8266208;28;20301;-63
2023/09/28 08:25:43;;;;;;;39.42;21.52;;;;;17.90;96723.00;;;;8256959;28;20227;-63
2023/09/28 08:29:53;;;;;;;40.65;21.77;;;;;18.10;96730.00;;;;8257107;28;20209;-63
2023/09/28 08:33:58;;;;;;;33.92;19.30;;;;;18.30;96724.00;;;;8257112;28;20236;-63
2023/09/28 08:38:03;;;;;;;35.03;20.17;;;;;18.50;96727.00;;;;8263415;28;20505;-63
2023/09/28 08:42:14;;;;;;;33.30;19.20;;;;;18.80;96727.00;;;;8268725;28;20253;-63
2023/09/28 08:46:22;;;;;;;36.10;19.70;;;;;19.10;96723.00;;;;8261363;28;20296;-63
2023/09/28 08:50:49;;;;;;;35.67;18.33;;;;;19.40;96723.00;;;;8263391;28;20207;-63
2023/09/28 08:54:52;;;;;;;36.03;18.80;;;;;19.70;96729.00;;;;8258122;28;20234;-63
2023/09/28 08:58:58;;;;;;;32.65;18.70;;;;;20.00;96720.00;;;;8253964;28;20242;-63
2023/09/28 09:03:08;;;;;;;31.67;18.33;;;;;20.50;96714.00;;;;8257850;28;20227;-63
2023/09/28 09:07:12;;;;;;;30.33;17.13;;;;;21.00;96720.00;;;;8270723;28;20233;-63
2023/09/28 09:11:19;;;;;;;32.22;16.98;;;;;21.40;96719.00;;;;8274943;28;20202;-64
2023/09/28 09:15:24;;;;;;;30.17;17.02;;;;;21.70;96722.00;;;;8262652;28;20201;-63
2023/09/28 09:19:31;;;;;;;45.15;15.05;;;;;21.80;96704.00;;;;8271977;28;20198;-63
2023/09/28 09:23:38;;;;;;;27.10;16.95;;;;;22.20;96707.00;;;;8259011;28;20197;-63
2023/09/28 09:27:41;;;;;;;22.27;14.93;;;;;22.70;96718.00;;;;8256554;28;20255;-63
2023/09/28 09:31:48;;;;;;;21.00;14.00;;;;;23.30;96711.00;;;;8266402;28;20268;-62
2023/09/28 09:35:53;;;;;;;23.73;14.07;;;;;23.90;96716.00;;;;8264760;28;20202;-62
2023/09/28 09:40:10;;;;;;;23.17;14.80;;;;;24.50;96705.00;;;;8252339;28;20261;-62
2023/09/28 09:44:18;;;;;;;21.88;13.95;;;;;25.00;96700.00;;;;8255768;28;20206;-62
2023/09/28 09:48:24;;;;;;;20.88;13.90;;;;;25.60;96701.00;;;;8261960;28;20225;-62
2023/09/28 09:52:30;;;;;;;20.13;14.00;;;;;25.90;96701.00;;;;8268551;28;20305;-63
2023/09/28 09:56:37;;;;;;;18.77;11.63;;;;;26.30;96703.00;;;;8257372;28;20658;-63
2023/09/28 10:00:42;;;;;;;16.00;11.30;;;;;26.40;96693.00;;;;8259523;28;20297;-63
2023/09/28 10:04:53;;;;;;;15.65;10.90;;;;;26.50;96698.00;;;;8264992;28;20236;-63
2023/09/28 10:08:59;;;;;;;15.18;9.60;;;;;26.60;96701.00;;;;8258041;28;20226;-63
2023/09/28 10:13:03;;;;;;;12.18;9.77;;;;;26.60;96705.00;;;;8255572;28;20202;-63
2023/09/28 10:17:06;;;;;;;13.52;9.77;;;;;26.50;96716.00;;;;8256866;28;20243;-63
2023/09/28 10:21:16;;;;;;;14.88;9.85;;;;;26.50;96710.00;;;;8256422;28;20302;-62
2023/09/28 10:25:24;;;;;;;15.10;8.32;;;;;26.10;96712.00;;;;8258087;28;20206;-62
2023/09/28 10:29:30;;;;;;;13.57;9.15;;;;;26.10;96716.00;;;;8259909;28;20230;-62
2023/09/28 10:33:54;;;;;;;12.15;8.88;;;;;26.10;96708.00;;;;8257203;28;20205;-62
2023/09/28 10:38:20;;;;;;;11.82;8.75;;;;;25.90;96710.00;;;;8264881;28;20225;-62
2023/09/28 10:42:34;;;;;;;17.33;8.77;;;;;26.10;96712.00;;;;8260221;28;20202;-62
2023/09/28 10:46:40;;;;;;;11.80;8.52;;;;;26.00;96705.00;;;;8260227;28;20269;-63
2023/09/28 10:50:45;;;;;;;11.18;8.68;;;;;26.00;96703.00;;;;8264443;28;20248;-62
2023/09/28 10:54:48;;;;;;;14.52;9.45;;;;;26.00;96713.00;;;;8262106;28;20206;-62
2023/09/28 10:59:00;;;;;;;13.02;8.70;;;;;26.00;96709.00;;;;8243427;28;20209;-63
2023/09/28 11:03:08;;;;;;;10.32;7.93;;;;;26.20;96711.00;;;;8252464;28;20305;-63
2023/09/28 11:07:14;;;;;;;14.05;8.43;;;;;26.30;96710.00;;;;8252661;28;20315;-63
2023/09/28 11:11:21;;;;;;;11.98;7.90;;;;;26.30;96715.00;;;;8269569;28;20198;-63
2023/09/28 11:15:29;;;;;;;12.23;8.63;;;;;26.40;96718.00;;;;8255580;28;20230;-63
2023/09/28 11:19:36;;;;;;;11.13;7.68;;;;;26.40;96728.00;;;;8255399;28;20234;-62
2023/09/28 11:23:43;;;;;;;12.98;6.85;;;;;26.70;96726.00;;;;8256272;28;20195;-64
2023/09/28 11:27:48;;;;;;;10.80;7.97;;;;;27.00;96717.00;;;;8248720;28;20316;-63
2023/09/28 11:31:56;;;;;;;9.88;7.32;;;;;27.00;96716.00;;;;8254435;28;20952;-64
2023/09/28 11:36:02;;;;;;;14.63;7.65;;;;;27.10;96715.00;;;;8256836;28;20194;-64
2023/09/28 11:40:07;;;;;;;10.70;7.32;;;;;27.10;96713.00;;;;8255858;28;20552;-64
2023/09/28 11:44:22;;;;;;;9.93;7.10;;;;;27.00;96713.00;;;;8254754;28;20292;-64
2023/09/28 11:48:27;;;;;;;12.07;8.02;;;;;26.90;96712.00;;;;8267168;28;20646;-64
2023/09/28 11:52:31;;;;;;;15.68;8.23;;;;;26.80;96708.00;;;;8262230;28;20223;-64
2023/09/28 11:56:37;;;;;;;12.15;8.40;;;;;26.80;96701.00;;;;8263489;28;20194;-64
2023/09/28 12:00:41;;;;;;;15.13;9.80;;;;;26.60;96707.00;;;;8263663;28;20213;-64
2023/09/28 12:04:46;;;;;;;12.95;9.18;;;;;26.60;96701.00;;;;8262553;28;20560;-64
2023/09/28 12:08:52;;;;;;;13.50;9.93;;;;;26.60;96699.00;;;;8247525;28;20329;-64
2023/09/28 12:12:55;;;;;;;13.80;9.38;;;;;26.50;96689.00;;;;8250775;28;20202;-64
2023/09/28 12:16:58;;;;;;;13.90;9.07;;;;;26.40;96686.00;;;;8257731;28;20221;-64
2023/09/28 12:21:03;;;;;;;13.60;8.85;;;;;26.40;96681.00;;;;8265780;28;20228;-64
2023/09/28 12:25:10;;;;;;;12.45;9.18;;;;;26.30;96682.00;;;;8248846;28;20199;-64
2023/09/28 12:29:13;;;;;;;15.00;8.93;;;;;26.30;96676.00;;;;8254625;28;20223;-63
2023/09/28 12:33:16;;;;;;;13.00;8.57;;;;;26.20;96681.00;;;;8259541;28;20200;-64
2023/09/28 12:37:23;;;;;;;12.82;8.90;;;;;26.20;96686.00;;;;8245780;28;20202;-64
2023/09/28 12:41:26;;;;;;;12.70;8.57;;;;;26.20;96693.00;;;;8257156;28;20303;-63
2023/09/28 12:45:34;;;;;;;11.27;9.00;;;;;26.10;96684.00;;;;8256294;28;20763;-64
2023/09/28 12:49:39;;;;;;;14.13;9.15;;;;;26.10;96687.00;;;;8256732;28;20265;-63
2023/09/28 12:53:46;;;;;;;10.68;8.25;;;;;26.10;96680.00;;;;8252283;28;20631;-64
2023/09/28 12:57:50;;;;;;;10.25;7.60;;;;;26.10;96673.00;;;;8256351;28;20194;-63
2023/09/28 13:01:53;;;;;;;13.77;7.53;;;;;26.10;96672.00;;;;8253137;28;20230;-63
2023/09/28 13:05:59;;;;;;;13.73;8.00;;;;;26.20;96670.00;;;;8253408;28;20210;-63
2023/09/28 13:10:07;;;;;;;8.52;7.13;;;;;26.20;96665.00;;;;8264748;28;20229;-62
2023/09/28 13:14:11;;;;;;;9.60;7.68;;;;;26.10;96660.00;;;;8244495;28;20210;-62
2023/09/28 13:18:18;;;;;;;10.38;7.72;;;;;26.00;96670.00;;;;8254033;28;20213;-62
2023/09/28 13:22:24;;;;;;;10.50;6.80;;;;;26.10;96672.00;;;;8249099;28;20555;-63
2023/09/28 13:26:33;;;;;;;9.15;6.38;;;;;26.10;96673.00;;;;8246213;28;20207;-63
2023/09/28 13:36:02;;;;;;;7.95;6.32;;;;;26.20;96665.00;;;;8247655;28;20221;-62
2023/09/28 13:40:15;;;;;;;6.63;5.82;;;;;26.30;96669.00;;;;8256199;28;20297;-62
2023/09/28 13:44:21;;;;;;;8.15;6.22;;;;;26.40;96668.00;;;;8247832;28;20207;-62
2023/09/28 13:48:27;;;;;;;8.77;5.97;;;;;26.50;96673.00;;;;8238296;28;20225;-62
2023/09/28 13:52:30;;;;;;;7.78;6.00;;;;;26.60;96671.00;;;;8256414;28;20209;-63
2023/09/28 13:56:37;;;;;;;7.20;5.50;;;;;26.70;96673.00;;;;8250193;28;20578;-62
2023/09/28 14:00:44;;;;;;;6.70;5.88;;;;;27.00;96663.00;;;;8250250;28;20233;-62
2023/09/28 14:04:47;;;;;;;9.63;5.70;;;;;27.20;96645.00;;;;8248871;28;20257;-62
2023/09/28 14:08:50;;;;;;;6.70;5.40;;;;;27.50;96653.00;;;;8251428;28;20228;-62
2023/09/28 14:12:54;;;;;;;6.93;5.57;;;;;27.60;96654.00;;;;8250758;28;20206;-62
2023/09/28 14:17:01;;;;;;;6.93;5.38;;;;;27.70;96661.00;;;;8248201;28;20206;-62
2023/09/28 14:21:14;;;;;;;7.90;5.38;;;;;27.90;96666.00;;;;8256994;28;20195;-63
2023/09/28 14:25:19;;;;;;;8.10;4.65;;;;;28.10;96653.00;;;;8248927;28;20286;-63
2023/09/28 14:29:22;;;;;;;6.35;5.07;;;;;28.20;96650.00;;;;8259191;28;20218;-62
2023/09/28 14:33:27;;;;;;;5.57;4.85;;;;;28.10;96646.00;;;;8239601;28;20199;-62
2023/09/28 14:37:31;;;;;;;5.95;5.22;;;;;28.00;96642.00;;;;8247079;28;20195;-62
2023/09/28 14:41:38;;;;;;;6.15;5.47;;;;;28.00;96637.00;;;;8242789;28;20269;-62
2023/09/28 14:45:41;;;;;;;9.10;4.65;;;;;28.00;96632.00;;;;8240027;28;20191;-62
2023/09/28 14:49:47;;;;;;;4.72;4.20;;;;;28.00;96631.00;;;;8249416;28;20745;-62
2023/09/28 14:53:50;;;;;;;5.20;4.70;;;;;28.00;96630.00;;;;8254137;28;20205;-63
2023/09/28 14:57:54;;;;;;;5.18;4.20;;;;;27.90;96617.00;;;;8240279;28;20245;-63
2023/09/28 15:01:58;;;;;;;7.97;4.47;;;;;27.90;96627.00;;;;8249072;28;20232;-63
2023/09/28 15:06:03;;;;;;;6.35;4.57;;;;;27.80;96625.00;;;;8250345;28;20230;-62
2023/09/28 15:10:09;;;;;;;5.32;4.20;;;;;27.70;96632.00;;;;8242640;28;20277;-63
2023/09/28 15:14:13;;;;;;;4.80;4.30;;;;;27.70;96625.00;;;;8250277;28;20312;-62
2023/09/28 15:18:16;;;;;;;5.80;4.50;;;;;27.70;96622.00;;;;8250568;28;20202;-63
2023/09/28 15:22:21;;;;;;;5.40;4.00;;;;;27.60;96621.00;;;;8257026;28;20293;-63
2023/09/28 15:26:24;;;;;;;6.47;4.10;;;;;27.30;96628.00;;;;8256883;28;20955;-63
2023/09/28 15:30:27;;;;;;;7.13;4.60;;;;;27.20;96621.00;;;;8264533;28;20232;-63
2023/09/28 15:34:31;;;;;;;4.75;4.13;;;;;27.20;96630.00;;;;8259173;28;20579;-63
2023/09/28 15:38:35;;;;;;;9.65;4.50;;;;;27.10;96630.00;;;;8258556;28;20657;-63
2023/09/28 15:42:38;;;;;;;4.20;3.80;;;;;27.10;96629.00;;;;8254287;28;20253;-63
2023/09/28 15:46:42;;;;;;;5.60;4.00;;;;;27.10;96629.00;;;;8237882;28;20203;-63
2023/09/28 15:50:45;;;;;;;4.28;3.70;;;;;26.90;96622.00;;;;8256090;28;20313;-63
2023/09/28 15:54:49;;;;;;;4.28;3.80;;;;;26.60;96623.00;;;;8257218;28;20556;-62
2023/09/28 15:58:53;;;;;;;4.22;3.78;;;;;26.30;96619.00;;;;8251633;28;20198;-62
2023/09/28 16:02:57;;;;;;;5.80;3.65;;;;;26.00;96624.00;;;;8248309;28;20676;-63
2023/09/28 16:07:01;;;;;;;3.80;3.40;;;;;25.70;96612.00;;;;8255075;28;20225;-62
2023/09/28 16:11:06;;;;;;;4.57;3.60;;;;;25.40;96622.00;;;;8259127;28;20262;-63
2023/09/28 16:15:10;;;;;;;4.75;3.80;;;;;25.10;96622.00;;;;8250615;28;20253;-63
2023/09/28 16:19:13;;;;;;;3.90;3.50;;;;;24.80;96615.00;;;;8264453;28;20664;-63
2023/09/28 16:23:16;;;;;;;6.88;4.13;;;;;24.50;96617.00;;;;8265206;28;20280;-63
2023/09/28 16:27:21;;;;;;;8.35;4.00;;;;;24.20;96628.00;;;;8265407;28;20202;-63
2023/09/28 16:31:24;;;;;;;6.18;4.10;;;;;23.80;96625.00;;;;8255824;28;20254;-64
2023/09/28 16:35:27;;;;;;;5.28;3.97;;;;;23.30;96624.00;;;;8261089;28;20689;-63
2023/09/28 16:39:31;;;;;;;6.13;4.55;;;;;22.80;96635.00;;;;8255991;28;20210;-63
2023/09/28 16:43:35;;;;;;;6.75;4.35;;;;;22.30;96625.00;;;;8263920;28;20229;-63
2023/09/28 16:47:38;;;;;;;8.95;4.70;;;;;21.90;96633.00;;;;8257889;28;20707;-63
2023/09/28 16:51:42;;;;;;;9.52;4.32;;;;;21.60;96640.00;;;;8260916;28;20228;-63
2023/09/28 16:55:48;;;;;;;7.43;4.40;;;;;21.20;96640.00;;;;8251220;28;20210;-63
2023/09/28 16:59:53;;;;;;;5.30;4.40;;;;;20.80;96641.00;;;;8263033;28;20855;-63
2023/09/28 17:03:56;;;;;;;8.93;4.68;;;;;20.50;96634.00;;;;8262100;28;20256;-64
2023/09/28 17:07:59;;;;;;;8.98;4.97;;;;;20.20;96635.00;;;;8262096;28;20198;-63
2023/09/28 17:12:02;;;;;;;7.85;5.72;;;;;19.90;96635.00;;;;8261778;28;20257;-63
2023/09/28 17:16:08;;;;;;;5.88;5.25;;;;;19.60;96629.00;;;;8265599;28;20222;-63
2023/09/28 17:20:12;;;;;;;6.47;5.55;;;;;19.30;96628.00;;;;8258552;28;20254;-63
2023/09/28 17:24:17;;;;;;;7.88;5.95;;;;;19.00;96634.00;;;;8266298;28;20198;-62
2023/09/28 17:28:21;;;;;;;10.95;6.22;;;;;18.80;96636.00;;;;8259986;28;20229;-62
2023/09/28 17:32:25;;;;;;;8.63;6.22;;;;;18.60;96641.00;;;;8262313;28;20236;-62
2023/09/28 17:36:29;;;;;;;9.32;6.53;;;;;18.40;96637.00;;;;8261671;28;20198;-63
2023/09/28 17:40:34;;;;;;;9.13;6.57;;;;;18.30;96646.00;;;;8255619;28;20604;-62
2023/09/28 17:44:38;;;;;;;11.35;7.13;;;;;18.10;96659.00;;;;8251076;28;20227;-62
2023/09/28 17:48:43;;;;;;;12.63;6.90;;;;;18.00;96655.00;;;;8253602;28;20272;-62
2023/09/28 17:52:48;;;;;;;17.45;7.18;;;;;17.80;96659.00;;;;8249463;28;20281;-62
2023/09/28 17:56:51;;;;;;;19.48;7.13;;;;;17.60;96666.00;;;;8257534;28;20249;-62
2023/09/28 18:00:54;;;;;;;10.48;7.35;;;;;17.40;96673.00;;;;8252804;28;20199;-64
2023/09/28 18:05:01;;;;;;;16.75;10.02;;;;;17.30;96679.00;;;;8253423;28;20319;-64
2023/09/28 18:09:05;;;;;;;14.18;8.65;;;;;17.20;96681.00;;;;8259562;28;20242;-64
2023/09/28 18:13:08;;;;;;;11.30;8.52;;;;;17.10;96676.00;;;;8257587;28;20201;-66
2023/09/28 18:17:11;;;;;;;15.27;8.48;;;;;17.00;96677.00;;;;8254574;28;20207;-65
2023/09/28 18:21:17;;;;;;;12.90;8.05;;;;;16.90;96675.00;;;;8250546;28;20205;-65
2023/09/28 18:25:20;;;;;;;13.27;8.48;;;;;16.70;96673.00;;;;8242419;28;20265;-65
2023/09/28 18:29:25;;;;;;;21.80;11.10;;;;;16.70;96678.00;;;;8248301;28;20306;-65
2023/09/28 18:33:28;;;;;;;16.42;10.52;;;;;16.60;96669.00;;;;8249636;28;20195;-64
2023/09/28 18:37:33;;;;;;;14.50;9.63;;;;;16.50;96686.00;;;;8237989;28;20203;-64
2023/09/28 18:41:37;;;;;;;16.75;10.50;;;;;16.50;96683.00;;;;8240285;28;20595;-64
2023/09/28 18:45:41;;;;;;;18.80;11.55;;;;;16.50;96684.00;;;;8243537;28;20253;-65
2023/09/28 18:49:45;;;;;;;14.38;9.98;;;;;16.40;96690.00;;;;8227129;28;20306;-66
2023/09/28 18:53:50;;;;;;;17.88;11.10;;;;;16.30;96690.00;;;;8238663;28;20210;-65
2023/09/28 18:57:53;;;;;;;18.58;11.65;;;;;16.20;96694.00;;;;8233220;28;20203;-65
2023/09/28 19:01:56;;;;;;;19.25;11.27;;;;;16.10;96692.00;;;;8230465;28;20322;-64
2023/09/28 19:05:59;;;;;;;19.67;12.07;;;;;16.00;96694.00;;;;8230018;28;20236;-65
2023/09/28 19:10:05;;;;;;;19.30;11.32;;;;;15.90;96693.00;;;;8245264;28;20259;-65
2023/09/28 19:14:08;;;;;;;19.95;12.02;;;;;15.90;96694.00;;;;8244127;28;20325;-64
2023/09/28 19:18:11;;;;;;;21.08;12.77;;;;;15.80;96701.00;;;;8255239;28;20261;-64
2023/09/28 19:22:15;;;;;;;24.08;14.98;;;;;15.80;96701.00;;;;8248649;28;20217;-65
2023/09/28 19:26:22;;;;;;;25.38;14.52;;;;;15.80;96708.00;;;;8256457;28;20203;-65
2023/09/28 19:30:25;;;;;;;21.48;13.55;;;;;15.60;96699.00;;;;8247073;28;20288;-66
2023/09/28 19:34:28;;;;;;;27.98;14.98;;;;;15.50;96695.00;;;;8259082;28;20205;-65
2023/09/28 19:38:31;;;;;;;26.75;15.77;;;;;15.40;96695.00;;;;8260618;28;20212;-65
2023/09/28 19:42:38;;;;;;;23.15;14.70;;;;;15.40;96701.00;;;;8255840;28;20317;-64
2023/09/28 19:46:41;;;;;;;28.77;16.85;;;;;15.30;96701.00;;;;8255562;28;20202;-65
2023/09/28 19:50:45;;;;;;;33.55;16.52;;;;;15.30;96703.00;;;;8256397;28;20225;-66
2023/09/28 19:54:48;;;;;;;28.80;16.73;;;;;15.30;96699.00;;;;8254579;28;20225;-65
2023/09/28 19:58:53;;;;;;;26.05;15.57;;;;;15.20;96702.00;;;;8256182;28;20286;-65
2023/09/28 20:02:57;;;;;;;42.63;17.08;;;;;15.10;96700.00;;;;8255286;28;20665;-65
2023/09/28 20:07:00;;;;;;;34.58;18.02;;;;;15.10;96703.00;;;;8257854;28;20212;-65
2023/09/28 20:11:03;;;;;;;32.92;17.80;;;;;15.00;96697.00;;;;8249338;28;20287;-65